Terminal Aerodrome Forecast
Issued by NWS

Home | Current Version | Previous Version | Text Only | Print | Product List | Glossary On
Versions: 1 2 3 4 5 6 7 8 9 10 11 12 13 14 15 16 17 18 19 20 21 22 23 24 25 26 27 28 29 30 31 32 33 34
000
FTUS43 KGLD 301727
TAFMCK
TAF
KMCK 301727Z 3018/0118 35012KT P6SM -SHRA OVC015
      TEMPO 3018/3020 4SM -RA BR BKN009
     FM302000 35013G19KT P6SM -SHRA OVC015
     FM010100 35014G21KT P6SM VCSH OVC009
     FM010600 34013G18KT P6SM OVC003
     FM011400 35013G19KT P6SM OVC008=

USA.gov is the U.S. government's official web portal to all federal, state and local government web resources and services.